Time;durP1;ratioP1;P1;durP2;ratioP2;P2;SDS_P1;SDS_P2;PMS_P1;PMS_P2;Temp;Humidity;BMP_temperature;BMP_pressure;BME280_temperature;BME280_humidity;BME280_pressure;Samples;Min_cycle;Max_cycle;Signal;HPM_P1;HPM_P2
2021/10/07 00:00:54;;;;;;;40.90;9.50;;;;;;;11.78;88.96;99265.15;236113;1193;24072;-70
2021/10/07 00:05:57;;;;;;;47.30;9.80;;;;;;;11.78;89.03;99261.66;235892;1199;22638;-71
2021/10/07 00:11:02;;;;;;;41.70;7.70;;;;;;;11.83;89.03;99269.67;236026;1199;22464;-70
2021/10/07 00:16:07;;;;;;;50.30;9.50;;;;;;;11.84;89.05;99270.79;236000;1199;24081;-70
2021/10/07 00:21:11;;;;;;;52.10;9.60;;;;;;;11.82;88.94;99271.92;235826;1199;23985;-71
2021/10/07 00:26:14;;;;;;;39.90;7.60;;;;;;;11.80;88.87;99273.89;236346;1198;22434;-71
2021/10/07 00:31:21;;;;;;;41.80;8.20;;;;;;;11.79;88.94;99273.46;235278;1199;24145;-70
2021/10/07 00:41:38;;;;;;;45.20;8.20;;;;;;;11.83;88.81;99274.71;235100;1200;24561;-71
2021/10/07 00:46:53;;;;;;;36.50;7.40;;;;;;;11.84;88.86;99275.35;235227;1185;22437;-71
2021/10/07 00:51:56;;;;;;;34.50;7.10;;;;;;;11.84;89.09;99279.70;235319;1201;22475;-71
2021/10/07 00:57:02;;;;;;;33.10;7.60;;;;;;;11.83;88.75;99281.74;235172;1199;22457;-70
2021/10/07 01:02:11;;;;;;;35.50;7.30;;;;;;;11.77;88.71;99281.38;236115;1199;24092;-69
2021/10/07 01:07:28;;;;;;;21.70;4.80;;;;;;;11.71;88.83;99281.11;236121;1199;24101;-69
2021/10/07 01:12:31;;;;;;;35.60;6.80;;;;;;;11.69;88.94;99285.80;235982;1197;25255;-71
2021/10/07 01:17:34;;;;;;;27.00;5.50;;;;;;;11.75;89.16;99288.59;235900;1199;25248;-71
2021/10/07 01:22:36;;;;;;;30.90;6.40;;;;;;;11.72;88.83;99289.09;235644;1184;24072;-71
2021/10/07 01:27:39;;;;;;;43.50;7.60;;;;;;;11.72;88.86;99295.70;235767;1199;26237;-71
2021/10/07 01:32:43;;;;;;;33.50;5.50;;;;;;;11.71;89.03;99295.00;235084;1193;25112;-72
2021/10/07 01:37:45;;;;;;;37.20;7.30;;;;;;;11.75;89.35;99296.91;235221;1194;22516;-71
2021/10/07 01:42:48;;;;;;;40.70;7.40;;;;;;;11.80;89.35;99301.20;235140;1201;25355;-70
2021/10/07 01:47:51;;;;;;;27.10;6.20;;;;;;;11.83;89.12;99302.32;235097;1201;22596;-69
2021/10/07 01:52:54;;;;;;;27.90;5.60;;;;;;;11.76;88.87;99301.42;234954;1199;22455;-69
2021/10/07 01:57:58;;;;;;;40.20;7.10;;;;;;;11.71;88.87;99308.01;235651;1199;22425;-69
2021/10/07 02:03:12;;;;;;;34.40;6.40;;;;;;;11.71;88.93;99308.71;235650;1199;24030;-69
2021/10/07 02:08:15;;;;;;;28.00;6.10;;;;;;;11.69;89.12;99309.86;236004;1198;24063;-70
2021/10/07 02:13:17;;;;;;;38.20;7.20;;;;;;;11.68;89.24;99301.48;236001;1193;24085;-71
2021/10/07 02:18:21;;;;;;;37.10;6.30;;;;;;;11.67;89.33;99302.18;235905;1199;24115;-69
2021/10/07 02:23:23;;;;;;;29.00;5.50;;;;;;;11.66;89.30;99305.90;235600;1199;22437;-70
2021/10/07 02:28:26;;;;;;;27.80;6.30;;;;;;;11.63;89.12;99306.03;235636;1199;25217;-71
2021/10/07 02:33:33;;;;;;;31.40;5.60;;;;;;;11.59;89.38;99313.70;235139;1201;22464;-69
2021/10/07 02:38:42;;;;;;;27.30;5.20;;;;;;;11.56;89.36;99323.59;235132;1201;24947;-71
2021/10/07 02:43:45;;;;;;;32.40;7.10;;;;;;;11.53;89.79;99327.73;235140;1201;24689;-69
2021/10/07 02:48:47;;;;;;;24.10;5.30;;;;;;;11.51;89.72;99330.19;235090;1193;23618;-69
2021/10/07 02:53:51;;;;;;;35.00;6.90;;;;;;;11.50;89.95;99332.16;234977;1193;24105;-69
2021/10/07 02:58:54;;;;;;;40.90;7.70;;;;;;;11.51;90.05;99333.57;235694;1184;24057;-70
2021/10/07 03:03:57;;;;;;;40.60;7.00;;;;;;;11.51;89.97;99335.60;236021;1199;22427;-70
2021/10/07 03:09:00;;;;;;;41.70;7.20;;;;;;;11.55;90.01;99340.55;236283;1196;22451;-70
2021/10/07 03:14:03;;;;;;;39.30;7.90;;;;;;;11.61;90.11;99345.83;236453;1199;24506;-71
2021/10/07 03:19:09;;;;;;;44.30;7.80;;;;;;;11.64;90.03;99341.61;236190;1199;22419;-70
2021/10/07 03:24:12;;;;;;;57.60;8.40;;;;;;;11.66;90.06;99348.67;235968;1199;24157;-69
2021/10/07 03:29:14;;;;;;;41.50;7.70;;;;;;;11.69;90.00;99350.91;235533;1199;25191;-71
2021/10/07 03:34:17;;;;;;;41.30;7.00;;;;;;;11.70;90.11;99358.48;235074;1201;22439;-69
2021/10/07 03:39:19;;;;;;;27.20;6.40;;;;;;;11.70;89.97;99361.27;235159;1201;26502;-72
2021/10/07 03:44:22;;;;;;;35.00;6.50;;;;;;;11.69;90.02;99357.40;235191;1201;24022;-71
2021/10/07 03:49:25;;;;;;;33.70;6.80;;;;;;;11.65;89.86;99362.47;235210;1200;24243;-70
2021/10/07 03:54:28;;;;;;;36.30;6.90;;;;;;;11.61;90.08;99364.11;235203;1194;23678;-72
2021/10/07 03:59:30;;;;;;;37.40;5.90;;;;;;;11.62;90.07;99368.02;235947;1199;25194;-70
2021/10/07 04:04:33;;;;;;;52.40;7.40;;;;;;;11.63;90.13;99370.54;235886;1198;24072;-70
2021/10/07 04:09:36;;;;;;;35.10;6.60;;;;;;;11.69;90.50;99370.61;235995;1199;24051;-71
2021/10/07 04:14:39;;;;;;;33.40;6.80;;;;;;;11.78;90.59;99371.45;236001;1199;25565;-71
2021/10/07 04:19:44;;;;;;;38.00;7.30;;;;;;;11.87;90.36;99369.39;235952;1199;22449;-72
2021/10/07 04:24:48;;;;;;;32.60;6.20;;;;;;;11.91;90.48;99373.06;236209;1193;24401;-71
2021/10/07 04:29:52;;;;;;;34.50;6.20;;;;;;;12.05;91.19;99375.52;235316;1192;25017;-71
2021/10/07 04:34:55;;;;;;;22.70;5.20;;;;;;;12.10;90.22;99381.29;235178;1200;24147;-70
2021/10/07 04:40:11;;;;;;;45.70;7.60;;;;;;;12.03;89.42;99379.36;235254;1200;25269;-72
2021/10/07 04:45:20;;;;;;;45.40;7.40;;;;;;;12.03;89.96;99380.23;235169;1200;24933;-70
2021/10/07 04:50:23;;;;;;;40.60;7.10;;;;;;;12.10;90.02;99383.70;235221;1200;24063;-71
2021/10/07 04:55:25;;;;;;;47.40;8.60;;;;;;;12.09;89.93;99387.73;235470;1193;25312;-71
2021/10/07 05:00:28;;;;;;;36.20;6.00;;;;;;;12.21;90.59;99396.00;235875;1199;25231;-71
2021/10/07 05:05:31;;;;;;;44.80;7.40;;;;;;;12.32;90.39;99403.15;235819;1198;22440;-74
2021/10/07 05:10:33;;;;;;;44.10;6.60;;;;;;;12.39;90.11;99400.83;235592;1199;24006;-71
2021/10/07 05:15:37;;;;;;;47.70;8.40;;;;;;;12.45;90.15;99398.29;235977;1193;24046;-70
2021/10/07 05:20:40;;;;;;;42.00;6.90;;;;;;;12.53;90.07;99401.37;235467;1177;25240;-71
2021/10/07 05:25:43;;;;;;;48.70;8.40;;;;;;;12.53;89.42;99407.99;235544;1193;22457;-72
2021/10/07 05:30:45;;;;;;;45.00;7.90;;;;;;;12.60;89.85;99409.05;235232;1200;24074;-72
2021/10/07 05:35:49;;;;;;;37.00;7.20;;;;;;;12.65;89.73;99410.38;235534;1193;25063;-69
2021/10/07 05:40:52;;;;;;;45.40;7.60;;;;;;;12.64;89.16;99414.57;235736;1199;25196;-71
2021/10/07 05:45:55;;;;;;;39.20;7.30;;;;;;;12.63;89.11;99417.83;236025;1199;24217;-71
2021/10/07 05:50:58;;;;;;;68.00;9.30;;;;;;;12.61;88.57;99418.22;235732;1193;24333;-71
2021/10/07 05:56:00;;;;;;;70.90;9.90;;;;;;;12.60;88.56;99415.05;235970;1193;22464;-70
2021/10/07 06:01:03;;;;;;;73.30;11.50;;;;;;;12.67;89.17;99422.55;236169;1193;25055;-72
2021/10/07 06:06:06;;;;;;;90.60;11.30;;;;;;;12.75;88.96;99424.02;236327;1193;22455;-70
2021/10/07 06:11:08;;;;;;;80.80;11.60;;;;;;;12.85;88.85;99429.40;236102;1198;24041;-70
2021/10/07 06:16:12;;;;;;;79.20;12.00;;;;;;;12.89;88.99;99436.98;236171;1192;22422;-71
2021/10/07 06:21:15;;;;;;;82.90;12.50;;;;;;;12.97;88.92;99443.45;236429;1199;25212;-70
2021/10/07 06:26:32;;;;;;;75.60;11.40;;;;;;;13.02;88.90;99443.29;236268;1193;25272;-70
2021/10/07 06:31:36;;;;;;;73.40;11.00;;;;;;;12.97;88.36;99450.55;236054;1193;25115;-69
2021/10/07 06:36:39;;;;;;;62.60;10.20;;;;;;;12.91;88.03;99456.92;233856;1177;23062;-69
2021/10/07 06:41:42;;;;;;;51.60;8.80;;;;;;;12.86;88.14;99464.23;234869;1192;25003;-69
2021/10/07 06:46:44;;;;;;;49.00;9.10;;;;;;;12.85;88.43;99466.66;234294;1193;22464;-68
2021/10/07 06:51:48;;;;;;;56.30;8.60;;;;;;;12.83;88.15;99464.16;234392;1193;22478;-69
2021/10/07 06:56:54;;;;;;;40.00;7.70;;;;;;;12.92;88.79;99459.10;234603;1192;24066;-68
2021/10/07 07:01:57;;;;;;;38.10;6.30;;;;;;;13.01;88.48;99472.02;233551;1192;24071;-69
2021/10/07 07:07:00;;;;;;;63.20;9.30;;;;;;;13.07;88.57;99475.81;233917;1199;26314;-70
2021/10/07 07:12:03;;;;;;;46.10;7.30;;;;;;;13.24;89.03;99476.80;234005;1199;22447;-70
2021/10/07 07:17:07;;;;;;;50.90;9.90;;;;;;;13.34;88.47;99486.10;234197;1192;22747;-71
2021/10/07 07:22:16;;;;;;;50.00;8.20;;;;;;;13.46;88.43;99493.02;236406;1192;24214;-71
2021/10/07 07:27:19;;;;;;;41.90;8.30;;;;;;;13.55;88.25;99492.63;236828;1194;22450;-71
2021/10/07 07:32:22;;;;;;;47.80;8.50;;;;;;;13.59;87.80;99502.73;236952;1193;25314;-71
2021/10/07 07:37:25;;;;;;;96.40;15.50;;;;;;;13.57;87.20;99507.77;236921;1199;24034;-72
2021/10/07 07:42:27;;;;;;;63.30;12.10;;;;;;;13.55;87.04;99509.27;236471;1192;22432;-69
2021/10/07 07:47:30;;;;;;;68.20;12.90;;;;;;;13.57;87.13;99519.41;236647;1192;24184;-69
2021/10/07 07:52:33;;;;;;;68.90;11.50;;;;;;;13.62;87.46;99521.23;236134;1192;22444;-71
2021/10/07 07:57:39;;;;;;;78.10;13.10;;;;;;;13.66;87.37;99522.68;236452;1192;25485;-71
2021/10/07 08:02:41;;;;;;;73.90;15.10;;;;;;;13.76;87.45;99530.95;236712;1193;22415;-71
2021/10/07 08:07:44;;;;;;;92.20;16.30;;;;;;;13.89;87.16;99536.84;237397;1198;26390;-71
2021/10/07 08:12:48;;;;;;;84.10;16.20;;;;;;;14.00;87.03;99536.84;236652;1198;22564;-71
2021/10/07 08:17:58;;;;;;;99.00;16.20;;;;;;;14.12;86.61;99534.31;236346;1192;23005;-71
2021/10/07 08:23:01;;;;;;;65.40;13.60;;;;;;;14.26;86.59;99542.11;237089;1192;25103;-72
2021/10/07 08:28:04;;;;;;;73.20;14.60;;;;;;;14.43;86.38;99547.70;236195;1199;22468;-71
2021/10/07 08:33:13;;;;;;;89.80;17.70;;;;;;;14.61;86.15;99545.05;235825;1185;24071;-74
2021/10/07 08:38:17;;;;;;;92.80;18.10;;;;;;;14.87;86.45;99547.25;236301;1193;24027;-71
2021/10/07 08:43:23;;;;;;;87.50;15.80;;;;;;;15.21;86.36;99547.33;237446;1198;25137;-73
2021/10/07 08:48:26;;;;;;;91.50;16.30;;;;;;;15.70;86.36;99547.52;235497;1199;22597;-73
2021/10/07 08:53:29;;;;;;;99.40;18.10;;;;;;;16.10;85.77;99553.13;235964;1191;22525;-72
2021/10/07 08:58:44;;;;;;;91.10;15.30;;;;;;;16.38;84.74;99548.85;235925;1192;22586;-72
2021/10/07 09:04:14;;;;;;;120.10;22.30;;;;;;;16.40;83.51;99549.88;235548;1200;24095;-72
2021/10/07 09:09:18;;;;;;;81.70;16.30;;;;;;;16.28;83.12;99552.71;235619;1193;22424;-73
2021/10/07 09:14:38;;;;;;;82.10;17.60;;;;;;;16.07;82.25;99554.50;235663;1193;22437;-73
2021/10/07 09:19:56;;;;;;;79.80;15.70;;;;;;;15.87;82.40;99555.96;236117;1192;23208;-72
2021/10/07 09:25:01;;;;;;;94.80;18.20;;;;;;;15.90;82.56;99567.30;236143;1199;22969;-72
2021/10/07 09:30:13;;;;;;;62.40;11.90;;;;;;;15.89;82.24;99569.10;236116;1193;24121;-72
2021/10/07 09:35:18;;;;;;;91.40;19.20;;;;;;;15.85;82.38;99569.04;236124;1199;24456;-72
2021/10/07 09:40:24;;;;;;;63.00;16.10;;;;;;;15.87;82.29;99569.30;236034;1198;22504;-72
2021/10/07 09:45:29;;;;;;;48.10;12.50;;;;;;;15.78;82.37;99565.45;236027;1199;22439;-71
2021/10/07 09:50:40;;;;;;;65.50;15.00;;;;;;;15.73;82.04;99563.55;235974;1193;22699;-72
2021/10/07 09:55:43;;;;;;;77.30;17.70;;;;;;;15.63;82.12;99567.59;236005;1199;22440;-72
2021/10/07 10:00:48;;;;;;;42.90;13.10;;;;;;;15.57;82.01;99569.05;235642;1177;24197;-71
2021/10/07 10:05:52;;;;;;;69.90;17.50;;;;;;;15.54;82.02;99570.48;235480;1193;25495;-72
2021/10/07 10:10:56;;;;;;;85.80;19.30;;;;;;;15.59;82.26;99568.91;236158;1193;22450;-72
2021/10/07 10:16:00;;;;;;;70.10;17.80;;;;;;;15.65;82.24;99571.39;235760;1193;24114;-72
2021/10/07 10:21:04;;;;;;;88.30;21.10;;;;;;;15.62;81.84;99573.88;236460;1199;22450;-71
2021/10/07 10:26:12;;;;;;;76.70;19.00;;;;;;;15.47;81.59;99573.73;236087;1198;25284;-72
2021/10/07 10:31:39;;;;;;;76.90;19.30;;;;;;;15.27;81.52;99573.02;235905;1193;22436;-71
2021/10/07 10:36:51;;;;;;;76.20;21.10;;;;;;;15.13;81.93;99571.11;235683;1194;25123;-69
2021/10/07 10:41:59;;;;;;;81.00;19.90;;;;;;;15.08;82.31;99577.45;235522;1193;22909;-71
2021/10/07 10:47:07;;;;;;;92.80;20.20;;;;;;;15.21;82.71;99580.17;236095;1199;22428;-72
2021/10/07 10:52:29;;;;;;;80.20;19.00;;;;;;;15.48;82.66;99582.58;236512;1192;24018;-71
2021/10/07 10:57:48;;;;;;;102.10;22.00;;;;;;;15.68;82.23;99589.80;235450;1199;24175;-72
2021/10/07 11:02:56;;;;;;;115.30;24.90;;;;;;;15.91;81.98;99591.75;236047;1192;23006;-71
2021/10/07 11:08:26;;;;;;;96.30;21.90;;;;;;;16.27;82.23;99585.27;235966;1198;24074;-71
2021/10/07 11:13:47;;;;;;;105.20;24.30;;;;;;;16.64;81.68;99580.29;235644;1194;24062;-71
2021/10/07 11:18:50;;;;;;;65.30;17.80;;;;;;;17.01;81.12;99577.58;236115;1199;22444;-71
2021/10/07 11:23:55;;;;;;;72.00;17.50;;;;;;;17.34;80.33;99579.79;235480;1193;22447;-73
2021/10/07 11:28:59;;;;;;;106.50;23.30;;;;;;;17.49;79.14;99577.63;235866;1199;22553;-72
2021/10/07 11:34:04;;;;;;;80.20;18.80;;;;;;;17.65;78.91;99579.27;236178;1193;24036;-72
2021/10/07 11:39:08;;;;;;;92.40;21.40;;;;;;;17.80;78.18;99571.70;235974;1199;24148;-70
2021/10/07 11:44:11;;;;;;;102.40;25.60;;;;;;;17.94;78.04;99569.83;236197;1199;24054;-70
2021/10/07 11:49:14;;;;;;;102.60;24.90;;;;;;;18.16;77.66;99569.80;236254;1198;24194;-71
2021/10/07 11:54:19;;;;;;;86.40;23.60;;;;;;;18.24;77.38;99573.09;235922;1199;22426;-72
2021/10/07 11:59:23;;;;;;;72.60;20.10;;;;;;;18.21;76.63;99566.54;235894;1194;24061;-72
2021/10/07 12:04:27;;;;;;;59.40;16.90;;;;;;;18.01;76.06;99568.90;236276;1199;22455;-71
2021/10/07 12:09:29;;;;;;;52.40;15.70;;;;;;;17.69;75.43;99567.73;236594;1199;22648;-72
2021/10/07 12:14:48;;;;;;;58.40;16.70;;;;;;;17.41;75.65;99570.69;236400;1193;22597;-69
2021/10/07 12:19:50;;;;;;;43.00;15.10;;;;;;;17.43;76.31;99570.48;236170;1199;22397;-74
2021/10/07 12:25:00;;;;;;;46.80;14.90;;;;;;;17.52;76.19;99570.20;236007;1185;25165;-71
2021/10/07 12:30:06;;;;;;;53.30;16.40;;;;;;;17.56;75.73;99576.41;235580;1195;22438;-70
2021/10/07 12:35:10;;;;;;;70.60;19.70;;;;;;;17.66;75.73;99577.58;236202;1200;22438;-71
2021/10/07 12:40:13;;;;;;;39.80;12.80;;;;;;;17.77;75.41;99577.94;235806;1193;22453;-72
2021/10/07 12:45:17;;;;;;;47.00;15.10;;;;;;;17.64;75.10;99577.30;235660;1193;24117;-72
2021/10/07 12:50:21;;;;;;;44.00;13.80;;;;;;;17.34;75.01;99579.27;236219;1199;22450;-71
2021/10/07 12:55:24;;;;;;;37.80;13.10;;;;;;;17.00;75.18;99577.84;235896;1193;25017;-72
2021/10/07 13:00:35;;;;;;;49.50;15.90;;;;;;;16.94;75.96;99576.89;235885;1194;22803;-72
2021/10/07 13:05:43;;;;;;;59.00;17.90;;;;;;;17.07;75.78;99577.95;236037;1197;22465;-72
2021/10/07 13:10:48;;;;;;;31.00;12.10;;;;;;;17.31;75.80;99582.45;236086;1193;22870;-70
2021/10/07 13:15:51;;;;;;;41.10;13.60;;;;;;;17.38;75.03;99585.02;235951;1199;22440;-72
2021/10/07 13:20:53;;;;;;;36.90;14.10;;;;;;;17.35;75.07;99593.23;235746;1199;22461;-71
2021/10/07 13:25:56;;;;;;;43.20;13.20;;;;;;;17.25;75.16;99591.89;235564;1193;24065;-72
2021/10/07 13:30:59;;;;;;;43.80;15.50;;;;;;;17.25;75.49;99589.17;236056;1199;25045;-71
2021/10/07 13:36:05;;;;;;;46.60;15.30;;;;;;;17.44;75.63;99582.58;236672;1193;22455;-71
2021/10/07 13:41:08;;;;;;;36.70;13.00;;;;;;;17.68;75.28;99583.38;235999;1193;22507;-71
2021/10/07 13:46:10;;;;;;;29.70;10.10;;;;;;;17.71;74.36;99588.65;235529;1199;22468;-74
2021/10/07 13:51:13;;;;;;;36.80;12.10;;;;;;;17.41;73.05;99590.80;235865;1193;24061;-74
2021/10/07 13:56:16;;;;;;;33.10;11.70;;;;;;;17.19;73.28;99600.44;236096;1199;24134;-72
2021/10/07 14:01:19;;;;;;;22.90;8.80;;;;;;;17.28;73.97;99595.27;236621;1198;24073;-72
2021/10/07 14:06:22;;;;;;;39.50;13.60;;;;;;;17.44;73.83;99592.88;236694;1193;22485;-72
2021/10/07 14:11:27;;;;;;;27.40;10.80;;;;;;;17.41;73.36;99599.43;236298;1200;23116;-72
2021/10/07 14:16:31;;;;;;;21.40;8.80;;;;;;;17.32;73.21;99603.39;236534;1199;24015;-71
2021/10/07 14:21:34;;;;;;;27.70;10.20;;;;;;;17.19;72.88;99604.15;236860;1199;24225;-74
2021/10/07 14:26:36;;;;;;;25.30;10.50;;;;;;;17.23;73.48;99607.46;236921;1199;24059;-72
2021/10/07 14:31:40;;;;;;;21.00;7.80;;;;;;;17.17;72.83;99608.99;236069;1200;25309;-72
2021/10/07 14:36:43;;;;;;;15.10;8.80;;;;;;;16.78;72.39;99612.84;236117;1195;24077;-73
2021/10/07 14:41:56;;;;;;;24.50;9.90;;;;;;;16.49;72.77;99614.45;236183;1193;22430;-73
2021/10/07 14:47:18;;;;;;;27.60;9.40;;;;;;;16.33;72.97;99618.34;235828;1200;22426;-71
2021/10/07 14:52:21;;;;;;;23.60;9.80;;;;;;;16.18;72.89;99627.70;235798;1194;24113;-73
2021/10/07 14:57:24;;;;;;;19.40;9.10;;;;;;;16.01;73.07;99628.67;235936;1193;24045;-72
2021/10/07 15:02:26;;;;;;;41.20;14.20;;;;;;;15.90;73.26;99626.86;235282;1201;25333;-72
2021/10/07 15:07:29;;;;;;;28.00;11.50;;;;;;;15.80;73.25;99629.96;235663;1201;24081;-74
2021/10/07 15:12:34;;;;;;;22.80;8.80;;;;;;;15.62;73.22;99633.06;235682;1200;22450;-73
2021/10/07 15:17:41;;;;;;;28.30;10.20;;;;;;;15.45;73.14;99639.98;235889;1200;25086;-73
2021/10/07 15:22:44;;;;;;;21.30;9.90;;;;;;;15.25;73.12;99643.60;236215;1195;25041;-72
2021/10/07 15:27:46;;;;;;;21.70;7.60;;;;;;;15.04;73.29;99646.72;235719;1199;24104;-73
2021/10/07 15:33:04;;;;;;;18.50;7.70;;;;;;;14.88;73.46;99650.17;236508;1199;25199;-71
2021/10/07 15:38:14;;;;;;;20.00;8.70;;;;;;;14.84;73.59;99653.85;236019;1195;24043;-73
2021/10/07 15:43:17;;;;;;;13.70;5.60;;;;;;;14.81;73.41;99658.11;236005;1199;25202;-72
2021/10/07 15:48:20;;;;;;;17.60;4.70;;;;;;;14.77;72.76;99664.34;236055;1192;22458;-73
2021/10/07 15:53:30;;;;;;;11.20;4.80;;;;;;;14.73;72.65;99667.80;236214;1199;24075;-73
2021/10/07 15:58:37;;;;;;;11.60;5.30;;;;;;;14.69;72.52;99673.95;235783;1187;24148;-71
2021/10/07 16:03:40;;;;;;;17.00;6.50;;;;;;;14.59;72.19;99684.58;235439;1196;24055;-72
2021/10/07 16:08:42;;;;;;;19.50;7.50;;;;;;;14.45;72.22;99694.64;235482;1194;22445;-73
2021/10/07 16:13:45;;;;;;;15.20;6.10;;;;;;;14.30;72.23;99706.80;236081;1200;24062;-77
2021/10/07 16:18:48;;;;;;;13.00;5.30;;;;;;;14.10;72.23;99712.31;235701;1200;24044;-73
2021/10/07 16:23:52;;;;;;;9.90;4.50;;;;;;;13.90;72.28;99721.33;235948;1200;22582;-72
2021/10/07 16:28:54;;;;;;;10.50;4.90;;;;;;;13.76;72.22;99731.86;235690;1200;22470;-73
2021/10/07 16:33:58;;;;;;;10.50;4.80;;;;;;;13.66;72.51;99735.11;236064;1193;24295;-73
2021/10/07 16:39:00;;;;;;;13.90;4.80;;;;;;;13.60;72.44;99741.09;235995;1200;25177;-74
2021/10/07 16:44:03;;;;;;;13.10;4.40;;;;;;;13.56;72.28;99755.45;236055;1198;24045;-74
2021/10/07 16:49:08;;;;;;;8.10;3.30;;;;;;;13.50;71.94;99763.58;236214;1200;23131;-74
2021/10/07 16:54:11;;;;;;;9.10;3.90;;;;;;;13.40;71.15;99769.42;236263;1196;24534;-72
2021/10/07 16:59:13;;;;;;;13.20;3.60;;;;;;;13.24;70.71;99778.23;235899;1187;25276;-74
2021/10/07 17:04:16;;;;;;;8.10;4.30;;;;;;;13.10;70.77;99782.93;235525;1187;24105;-73
2021/10/07 17:09:18;;;;;;;8.30;3.50;;;;;;;12.96;70.72;99791.24;235547;1201;22458;-74
2021/10/07 17:14:20;;;;;;;13.50;4.30;;;;;;;12.80;70.82;99793.23;235647;1196;24071;-73
2021/10/07 17:19:23;;;;;;;11.80;4.60;;;;;;;12.61;71.04;99796.02;235779;1200;24205;-74
2021/10/07 17:24:26;;;;;;;8.70;4.30;;;;;;;12.41;71.35;99794.81;235517;1197;25248;-73
2021/10/07 17:29:28;;;;;;;9.00;3.90;;;;;;;12.22;71.46;99786.61;235887;1193;22430;-74
2021/10/07 17:34:30;;;;;;;12.60;5.20;;;;;;;12.05;71.86;99784.27;235787;1199;24064;-73
2021/10/07 17:39:33;;;;;;;13.50;4.40;;;;;;;11.91;72.06;99790.77;236346;1193;24150;-73
2021/10/07 17:44:36;;;;;;;14.30;5.50;;;;;;;11.71;71.76;99788.55;235677;1200;24073;-71
2021/10/07 17:49:39;;;;;;;17.80;6.40;;;;;;;11.54;71.93;99783.73;235853;1199;22468;-74
2021/10/07 17:54:41;;;;;;;23.00;7.90;;;;;;;11.41;72.21;99786.30;235579;1199;24158;-74
2021/10/07 17:59:44;;;;;;;19.00;8.20;;;;;;;11.28;72.19;99781.42;235513;1200;22437;-72
2021/10/07 18:04:48;;;;;;;25.60;8.80;;;;;;;11.19;72.71;99784.64;235141;1201;24145;-74
2021/10/07 18:09:50;;;;;;;19.30;7.90;;;;;;;11.10;72.83;99788.56;235579;1193;24170;-73
2021/10/07 18:14:53;;;;;;;19.40;8.20;;;;;;;10.98;73.06;99788.54;235689;1200;24050;-74
2021/10/07 18:19:56;;;;;;;23.50;8.20;;;;;;;10.84;73.50;99788.04;235467;1199;25192;-71
2021/10/07 18:24:58;;;;;;;22.30;9.10;;;;;;;10.71;74.00;99780.27;235727;1200;22438;-74
2021/10/07 18:30:03;;;;;;;17.40;7.50;;;;;;;10.58;74.18;99778.20;235698;1200;25243;-74
2021/10/07 18:35:06;;;;;;;17.70;7.20;;;;;;;10.45;74.43;99773.99;236116;1200;22445;-73
2021/10/07 18:40:12;;;;;;;18.40;6.40;;;;;;;10.34;74.63;99768.10;236029;1200;24048;-74
2021/10/07 18:45:14;;;;;;;20.20;7.10;;;;;;;10.23;74.83;99765.57;235524;1200;25133;-73
2021/10/07 18:50:17;;;;;;;25.40;7.70;;;;;;;10.14;75.02;99769.34;235646;1200;22506;-74
2021/10/07 18:55:19;;;;;;;23.30;7.30;;;;;;;10.02;75.09;99771.84;235795;1200;24208;-74
2021/10/07 19:00:22;;;;;;;17.10;7.00;;;;;;;9.91;75.45;99772.59;235657;1201;22554;-74
2021/10/07 19:05:25;;;;;;;15.40;6.70;;;;;;;9.80;75.51;99771.98;235862;1201;22593;-74
2021/10/07 19:10:29;;;;;;;16.00;6.80;;;;;;;9.70;75.80;99773.48;235646;1200;26063;-72
2021/10/07 19:15:34;;;;;;;22.30;8.20;;;;;;;9.61;76.00;99772.24;235845;1200;22866;-74
2021/10/07 19:20:39;;;;;;;14.00;7.10;;;;;;;9.54;76.20;99773.59;235789;1200;22424;-74
2021/10/07 19:25:41;;;;;;;20.10;7.70;;;;;;;9.46;76.21;99775.04;235962;1199;25132;-74
2021/10/07 19:30:44;;;;;;;23.60;8.90;;;;;;;9.40;76.08;99774.98;236073;1198;25174;-73
2021/10/07 19:35:47;;;;;;;21.90;8.70;;;;;;;9.36;76.30;99779.88;236144;1199;22474;-73
2021/10/07 19:40:50;;;;;;;25.30;9.40;;;;;;;9.32;76.23;99783.96;236216;1177;23618;-75
2021/10/07 19:45:52;;;;;;;25.10;9.60;;;;;;;9.29;76.20;99792.06;235981;1199;24362;-75
2021/10/07 19:50:56;;;;;;;24.40;8.40;;;;;;;9.29;76.34;99786.88;235894;1177;24090;-74
2021/10/07 19:55:58;;;;;;;33.30;11.20;;;;;;;9.30;76.33;99789.67;235680;1200;22430;-74
2021/10/07 20:01:01;;;;;;;32.80;9.50;;;;;;;9.31;76.28;99780.15;235385;1177;24377;-71
2021/10/07 20:06:04;;;;;;;27.40;9.20;;;;;;;9.30;76.13;99776.13;235198;1200;24087;-74
2021/10/07 20:11:06;;;;;;;23.40;9.20;;;;;;;9.28;76.14;99776.55;235340;1187;25313;-74
2021/10/07 20:16:10;;;;;;;24.60;9.20;;;;;;;9.19;75.79;99773.85;235629;1200;22447;-74
2021/10/07 20:21:13;;;;;;;22.90;10.80;;;;;;;9.14;76.02;99771.30;235796;1194;22440;-74
2021/10/07 20:26:19;;;;;;;30.30;10.00;;;;;;;9.13;76.27;99772.30;235560;1193;22552;-74
2021/10/07 20:31:23;;;;;;;30.20;10.50;;;;;;;9.11;76.20;99778.11;235524;1200;24081;-72
2021/10/07 20:41:39;;;;;;;22.40;8.40;;;;;;;8.97;76.04;99778.27;235514;1200;24065;-74
2021/10/07 20:46:41;;;;;;;34.20;10.90;;;;;;;8.90;75.96;99785.35;235607;1193;22659;-74
2021/10/07 20:51:44;;;;;;;23.30;7.70;;;;;;;8.84;76.03;99787.86;235619;1200;22477;-74
2021/10/07 20:56:48;;;;;;;21.80;9.30;;;;;;;8.80;76.04;99793.47;235411;1200;22431;-72
2021/10/07 21:01:52;;;;;;;22.60;7.80;;;;;;;8.75;76.03;99797.53;235789;1201;22552;-74
2021/10/07 21:06:55;;;;;;;22.30;7.60;;;;;;;8.71;76.27;99791.41;235578;1185;24195;-73
2021/10/07 21:11:57;;;;;;;24.70;8.90;;;;;;;8.69;76.43;99790.85;235538;1200;22464;-73
2021/10/07 21:17:01;;;;;;;18.70;7.80;;;;;;;8.64;76.46;99794.38;235528;1200;22519;-74
2021/10/07 21:22:17;;;;;;;22.50;8.40;;;;;;;8.60;76.58;99794.05;235540;1200;24028;-72
2021/10/07 21:27:26;;;;;;;27.90;7.90;;;;;;;8.55;76.71;99795.55;235688;1199;22602;-72
2021/10/07 21:32:29;;;;;;;22.80;7.80;;;;;;;8.50;76.87;99795.98;236109;1199;24119;-73
2021/10/07 21:37:31;;;;;;;15.10;6.00;;;;;;;8.44;76.83;99799.30;236063;1199;25358;-73
2021/10/07 21:42:53;;;;;;;18.50;6.10;;;;;;;8.34;76.61;99796.14;235765;1199;24139;-74
2021/10/07 21:47:55;;;;;;;25.50;8.30;;;;;;;8.23;76.51;99795.04;236194;1198;22436;-74
2021/10/07 21:53:11;;;;;;;15.30;6.10;;;;;;;8.15;76.69;99799.41;236204;1193;22436;-73
2021/10/07 21:58:31;;;;;;;26.40;7.80;;;;;;;8.10;76.85;99797.64;235330;1201;22819;-74
2021/10/07 22:03:54;;;;;;;22.90;8.70;;;;;;;8.05;76.96;99798.86;235334;1194;24208;-72
2021/10/07 22:09:03;;;;;;;16.50;7.20;;;;;;;7.97;76.82;99798.70;235311;1193;24208;-73
2021/10/07 22:14:26;;;;;;;23.50;7.20;;;;;;;7.94;77.09;99795.24;235605;1193;23819;-73
2021/10/07 22:19:39;;;;;;;17.40;6.70;;;;;;;7.92;77.15;99794.41;235608;1186;24011;-74
2021/10/07 22:24:43;;;;;;;32.20;8.50;;;;;;;7.85;77.24;99794.63;236022;1193;24148;-73
2021/10/07 22:29:58;;;;;;;29.30;8.70;;;;;;;7.83;77.45;99792.73;235448;1200;22451;-75
2021/10/07 22:35:15;;;;;;;27.60;8.70;;;;;;;7.80;77.49;99796.69;235529;1196;24056;-73
2021/10/07 22:40:18;;;;;;;39.70;8.80;;;;;;;7.71;77.32;99795.09;235534;1200;22438;-73
2021/10/07 22:45:21;;;;;;;30.70;8.80;;;;;;;7.65;77.41;99793.23;235519;1194;22433;-74
2021/10/07 22:50:23;;;;;;;19.50;9.10;;;;;;;7.61;77.41;99794.17;235504;1177;24516;-74
2021/10/07 22:55:26;;;;;;;34.90;10.20;;;;;;;7.54;77.31;99800.67;235580;1193;24063;-72
2021/10/07 23:00:40;;;;;;;25.20;9.90;;;;;;;7.44;77.47;99801.42;235311;1193;25559;-73
2021/10/07 23:05:44;;;;;;;52.60;11.80;;;;;;;7.35;77.60;99807.25;235513;1201;25330;-75
2021/10/07 23:10:53;;;;;;;32.20;9.70;;;;;;;7.29;77.64;99804.64;235949;1183;24101;-71
2021/10/07 23:16:11;;;;;;;20.60;7.90;;;;;;;7.21;77.78;99806.33;235904;1199;22438;-74
2021/10/07 23:21:14;;;;;;;28.20;11.50;;;;;;;7.12;77.71;99803.40;236553;1197;24051;-73
2021/10/07 23:26:16;;;;;;;31.20;9.50;;;;;;;7.07;77.73;99800.48;236535;1197;24069;-74
2021/10/07 23:31:19;;;;;;;30.50;10.40;;;;;;;6.98;77.79;99804.11;236436;1198;24425;-74